Time;durP1;ratioP1;P1;durP2;ratioP2;P2;SDS_P1;SDS_P2;PMS_P1;PMS_P2;Temp;Humidity;BMP_temperature;BMP_pressure;BME280_temperature;BME280_humidity;BME280_pressure;Samples;Min_cycle;Max_cycle;Signal;HPM_P1;HPM_P2
2022/01/29 00:00:50;;;;;;;2.63;2.43;;;18.30;37.80;;;;;;5023171;28;20423;-69
2022/01/29 00:03:15;;;;;;;2.83;2.57;;;18.30;37.80;;;;;;5019477;28;20223;-69
2022/01/29 00:05:41;;;;;;;2.63;2.53;;;18.30;37.70;;;;;;5022384;28;20298;-69
2022/01/29 00:08:06;;;;;;;2.80;2.60;;;18.30;37.70;;;;;;5019319;28;20247;-69
2022/01/29 00:10:32;;;;;;;3.27;3.00;;;18.30;37.70;;;;;;5019998;28;20664;-69
2022/01/29 00:12:58;;;;;;;3.10;2.90;;;18.30;37.70;;;;;;5018581;28;20711;-69
2022/01/29 00:15:23;;;;;;;2.70;2.50;;;18.30;37.80;;;;;;5021381;28;20242;-69
2022/01/29 00:17:49;;;;;;;3.17;2.70;;;18.30;37.70;;;;;;5020312;28;20427;-68
2022/01/29 00:20:15;;;;;;;2.70;2.50;;;18.20;37.60;;;;;;5017237;28;20220;-69
2022/01/29 00:22:41;;;;;;;3.23;2.93;;;18.30;37.80;;;;;;5021610;28;20219;-68
2022/01/29 00:25:11;;;;;;;3.20;3.00;;;18.30;37.70;;;;;;5023291;28;20216;-69
2022/01/29 00:27:36;;;;;;;2.90;2.70;;;18.30;37.70;;;;;;5021539;28;20423;-69
2022/01/29 00:30:08;;;;;;;2.60;2.40;;;18.20;37.60;;;;;;5019910;28;20426;-69
2022/01/29 00:32:35;;;;;;;2.60;2.50;;;18.20;37.60;;;;;;5019887;28;20218;-69
2022/01/29 00:35:00;;;;;;;2.87;2.67;;;18.30;37.70;;;;;;5016966;28;20445;-69
2022/01/29 00:37:26;;;;;;;2.40;2.23;;;18.20;37.60;;;;;;5019785;28;20448;-69
2022/01/29 00:39:51;;;;;;;2.97;2.77;;;18.20;37.60;;;;;;5020912;28;20270;-68
2022/01/29 00:42:17;;;;;;;2.73;2.53;;;18.20;37.60;;;;;;5015315;28;20291;-68
2022/01/29 00:44:44;;;;;;;2.80;2.60;;;18.20;37.60;;;;;;5020974;28;20288;-69
2022/01/29 00:47:10;;;;;;;3.63;2.40;;;18.20;37.60;;;;;;5018544;28;20234;-69
2022/01/29 00:49:36;;;;;;;2.60;2.50;;;18.20;37.60;;;;;;5023159;28;20517;-68
2022/01/29 00:52:03;;;;;;;2.93;2.73;;;18.20;37.70;;;;;;5020759;28;20440;-69
2022/01/29 00:54:28;;;;;;;2.67;2.47;;;18.20;37.60;;;;;;5016412;28;20212;-68
2022/01/29 00:56:54;;;;;;;2.20;2.10;;;18.20;37.60;;;;;;5017863;28;20754;-68
2022/01/29 00:59:20;;;;;;;2.30;2.20;;;18.20;37.60;;;;;;5017834;28;20232;-69
2022/01/29 01:01:45;;;;;;;3.10;2.90;;;18.20;37.60;;;;;;5018899;28;20227;-68
2022/01/29 01:04:11;;;;;;;2.60;2.40;;;18.20;37.70;;;;;;5017535;28;20223;-68
2022/01/29 01:06:36;;;;;;;2.90;2.70;;;18.20;37.60;;;;;;5019549;28;20338;-69
2022/01/29 01:09:02;;;;;;;2.10;2.00;;;18.20;37.60;;;;;;5018141;28;20219;-69
2022/01/29 01:11:28;;;;;;;2.50;2.40;;;18.20;37.60;;;;;;5018465;28;20207;-68
2022/01/29 01:13:53;;;;;;;2.93;2.73;;;18.20;37.70;;;;;;5016144;28;20211;-69
2022/01/29 01:16:19;;;;;;;2.77;2.57;;;18.20;37.60;;;;;;5018085;28;20283;-68
2022/01/29 01:18:44;;;;;;;3.03;2.83;;;18.20;37.60;;;;;;5014904;28;20223;-68
2022/01/29 01:21:10;;;;;;;3.53;3.10;;;18.20;37.60;;;;;;5020322;28;20572;-68
2022/01/29 01:23:36;;;;;;;2.70;2.50;;;18.20;37.60;;;;;;5018132;28;20529;-68
2022/01/29 01:26:02;;;;;;;2.93;2.73;;;18.20;37.60;;;;;;5022431;28;20219;-69
2022/01/29 01:28:28;;;;;;;3.17;2.87;;;18.20;37.60;;;;;;5017082;28;20587;-68
2022/01/29 01:30:54;;;;;;;2.83;2.63;;;18.20;37.60;;;;;;5017286;28;20804;-68
2022/01/29 01:33:20;;;;;;;2.80;2.60;;;18.20;37.60;;;;;;5018509;28;20424;-68
2022/01/29 01:35:50;;;;;;;2.90;2.70;;;18.20;37.60;;;;;;5017036;28;20300;-70
2022/01/29 01:40:47;;;;;;;2.83;2.70;;;18.20;37.60;;;;;;5019117;28;20435;-67
2022/01/29 01:43:13;;;;;;;2.97;2.77;;;18.20;37.60;;;;;;5019086;28;20415;-67
2022/01/29 01:45:39;;;;;;;2.73;2.63;;;18.20;37.60;;;;;;5016497;28;20426;-68
2022/01/29 01:48:06;;;;;;;2.67;2.47;;;18.20;37.60;;;;;;5023929;28;20675;-67
2022/01/29 01:50:33;;;;;;;2.77;2.57;;;18.20;37.60;;;;;;5022455;28;20235;-67
2022/01/29 01:52:59;;;;;;;3.73;3.07;;;18.20;37.60;;;;;;5022958;28;20473;-67
2022/01/29 01:55:25;;;;;;;3.80;3.50;;;18.20;37.60;;;;;;5018853;28;22109;-67
2022/01/29 01:57:50;;;;;;;2.83;2.63;;;18.20;37.60;;;;;;5017155;28;20231;-67
2022/01/29 02:00:16;;;;;;;3.00;2.80;;;18.20;37.60;;;;;;5023165;28;20433;-67
2022/01/29 02:02:42;;;;;;;3.47;2.90;;;18.20;37.60;;;;;;5023411;28;20563;-67
2022/01/29 02:05:09;;;;;;;2.90;2.70;;;18.20;37.60;;;;;;5022356;28;20269;-67
2022/01/29 02:07:35;;;;;;;2.90;2.70;;;18.20;37.60;;;;;;5022800;28;20228;-67
2022/01/29 02:10:01;;;;;;;3.50;3.07;;;18.20;37.60;;;;;;5014516;28;20436;-67
2022/01/29 02:12:30;;;;;;;3.00;2.80;;;18.20;37.60;;;;;;5025702;28;20469;-67
2022/01/29 02:15:01;;;;;;;3.10;2.90;;;18.20;37.60;;;;;;5023270;28;20435;-67
2022/01/29 02:17:26;;;;;;;3.17;2.70;;;18.20;37.60;;;;;;5018304;28;20460;-67
2022/01/29 02:19:52;;;;;;;2.90;2.70;;;18.20;37.60;;;;;;5017775;28;20453;-67
2022/01/29 02:22:17;;;;;;;2.83;2.47;;;18.20;37.60;;;;;;5020679;28;20660;-67
2022/01/29 02:24:43;;;;;;;3.17;2.97;;;18.20;37.60;;;;;;5022126;28;20211;-67
2022/01/29 02:27:09;;;;;;;3.17;2.97;;;18.20;37.60;;;;;;5021991;28;20232;-67
2022/01/29 02:29:35;;;;;;;2.50;2.40;;;18.20;37.60;;;;;;5021475;28;20541;-67
2022/01/29 02:32:00;;;;;;;2.53;2.30;;;18.20;37.60;;;;;;5020626;28;20243;-67
2022/01/29 02:34:29;;;;;;;3.00;2.80;;;18.20;37.70;;;;;;5019975;28;20900;-67
2022/01/29 02:36:56;;;;;;;2.87;2.47;;;18.10;37.60;;;;;;5021409;28;20687;-67
2022/01/29 02:39:22;;;;;;;3.17;2.97;;;18.20;37.60;;;;;;5025434;28;20466;-67
2022/01/29 02:41:48;;;;;;;2.67;2.57;;;18.10;37.60;;;;;;5024739;28;20673;-67
2022/01/29 02:44:20;;;;;;;3.10;2.90;;;18.20;37.60;;;;;;5021103;28;21031;-67
2022/01/29 02:46:57;;;;;;;2.87;2.70;;;18.20;37.60;;;;;;5018222;28;20428;-67
2022/01/29 02:49:26;;;;;;;3.20;3.00;;;18.20;37.60;;;;;;5019693;28;20868;-67
2022/01/29 02:51:54;;;;;;;2.80;2.60;;;18.20;37.60;;;;;;5018321;28;20444;-67
2022/01/29 02:54:20;;;;;;;3.20;2.90;;;18.20;37.60;;;;;;5021123;28;20586;-67
2022/01/29 02:56:46;;;;;;;2.40;2.30;;;18.20;37.60;;;;;;5022997;28;20423;-67
2022/01/29 02:59:12;;;;;;;3.03;2.83;;;18.20;37.60;;;;;;5026441;28;20487;-67
2022/01/29 03:01:38;;;;;;;2.93;2.73;;;18.20;37.60;;;;;;5024740;28;20951;-67
2022/01/29 03:04:04;;;;;;;2.70;2.50;;;18.10;37.60;;;;;;5020749;28;20416;-67
2022/01/29 03:06:30;;;;;;;3.00;2.80;;;18.10;37.60;;;;;;5023834;28;20913;-68
2022/01/29 03:08:56;;;;;;;2.90;2.60;;;18.10;37.60;;;;;;5020434;28;20346;-67
2022/01/29 03:11:22;;;;;;;2.60;2.50;;;18.10;37.60;;;;;;5020722;28;20827;-67
2022/01/29 03:13:49;;;;;;;3.30;3.10;;;18.10;37.60;;;;;;5023615;28;20292;-67
2022/01/29 03:16:15;;;;;;;4.70;2.73;;;18.10;37.60;;;;;;5020230;28;20250;-67
2022/01/29 03:18:40;;;;;;;2.97;2.77;;;18.10;37.60;;;;;;5021948;28;20468;-67
2022/01/29 03:21:06;;;;;;;3.10;2.90;;;18.10;37.60;;;;;;5019572;28;20223;-67
2022/01/29 03:23:32;;;;;;;3.80;2.60;;;18.10;37.60;;;;;;5019937;28;20219;-67
2022/01/29 03:25:57;;;;;;;2.80;2.60;;;18.10;37.60;;;;;;5020326;28;20679;-67
2022/01/29 03:28:23;;;;;;;3.60;3.30;;;18.10;37.60;;;;;;5019794;28;20255;-67
2022/01/29 03:30:49;;;;;;;2.97;2.77;;;18.10;37.60;;;;;;5021874;28;20672;-67
2022/01/29 03:33:14;;;;;;;3.23;2.87;;;18.10;37.60;;;;;;5023377;28;20231;-67
2022/01/29 03:35:40;;;;;;;2.37;2.27;;;18.10;37.60;;;;;;5023407;28;20219;-67
2022/01/29 03:38:06;;;;;;;2.53;2.43;;;18.10;37.60;;;;;;5021026;28;20746;-67
2022/01/29 03:40:33;;;;;;;3.83;3.20;;;18.10;37.60;;;;;;5020394;28;20762;-67
2022/01/29 03:43:08;;;;;;;3.23;2.93;;;18.10;37.60;;;;;;5027378;28;20790;-67
2022/01/29 03:45:34;;;;;;;2.33;2.23;;;18.10;37.60;;;;;;5021541;28;20876;-67
2022/01/29 03:48:00;;;;;;;2.73;2.53;;;18.10;37.60;;;;;;5023195;28;20920;-69
2022/01/29 03:50:26;;;;;;;2.83;2.53;;;18.10;37.60;;;;;;5023078;28;20510;-67
2022/01/29 03:52:51;;;;;;;3.10;2.90;;;18.10;37.60;;;;;;5023587;28;20212;-67
2022/01/29 03:55:17;;;;;;;2.53;2.30;;;18.10;38.30;;;;;;5031858;28;20253;-67
2022/01/29 03:57:43;;;;;;;2.50;2.40;;;18.10;37.60;;;;;;5027196;28;20223;-67
2022/01/29 04:00:09;;;;;;;2.07;1.97;;;18.10;37.60;;;;;;5018913;28;20639;-67
2022/01/29 04:02:35;;;;;;;2.60;2.40;;;18.10;37.60;;;;;;5024928;28;20220;-67
2022/01/29 04:05:01;;;;;;;2.80;2.60;;;18.10;37.60;;;;;;5022016;28;20465;-68
2022/01/29 04:07:26;;;;;;;2.60;2.50;;;18.10;37.60;;;;;;5022064;28;20255;-67
2022/01/29 04:09:53;;;;;;;2.43;2.23;;;18.10;37.60;;;;;;5019823;28;20310;-67
2022/01/29 04:12:19;;;;;;;2.60;2.40;;;18.10;37.60;;;;;;5021134;28;20215;-67
2022/01/29 04:14:45;;;;;;;2.43;2.33;;;18.10;37.60;;;;;;5018848;28;20535;-67
2022/01/29 04:17:11;;;;;;;2.60;2.40;;;18.10;37.60;;;;;;5023031;28;20234;-67
2022/01/29 04:19:37;;;;;;;2.40;2.30;;;18.10;37.60;;;;;;5021403;28;20595;-67
2022/01/29 04:22:04;;;;;;;2.30;2.20;;;18.10;37.60;;;;;;5022332;28;20419;-68
2022/01/29 04:24:30;;;;;;;2.13;2.00;;;18.10;37.60;;;;;;5020584;28;20412;-69
2022/01/29 04:26:56;;;;;;;2.33;2.13;;;18.10;37.60;;;;;;5018405;28;20499;-67
2022/01/29 04:29:22;;;;;;;3.40;2.30;;;18.10;37.60;;;;;;5019124;28;20925;-69
2022/01/29 04:32:00;;;;;;;2.67;2.47;;;18.10;37.60;;;;;;5017442;28;20214;-70
2022/01/29 04:34:26;;;;;;;2.57;2.37;;;18.10;37.60;;;;;;5018962;28;20318;-69
2022/01/29 04:36:52;;;;;;;2.53;2.43;;;18.10;37.60;;;;;;5021239;28;20537;-69
2022/01/29 04:39:18;;;;;;;2.13;1.93;;;18.10;37.60;;;;;;5035283;28;20483;-68
2022/01/29 04:41:44;;;;;;;2.67;2.50;;;18.10;37.60;;;;;;5014139;28;20299;-68
2022/01/29 04:44:09;;;;;;;2.20;2.10;;;18.10;37.60;;;;;;5017059;28;20903;-68
2022/01/29 04:46:35;;;;;;;2.20;2.00;;;18.10;37.60;;;;;;5016273;28;20218;-68
2022/01/29 04:49:00;;;;;;;2.40;2.30;;;18.10;37.60;;;;;;5023076;28;20237;-68
2022/01/29 04:51:26;;;;;;;1.80;1.70;;;18.10;37.60;;;;;;5019148;28;20676;-68
2022/01/29 04:53:52;;;;;;;2.33;2.23;;;18.00;37.50;;;;;;5019108;28;20223;-67
2022/01/29 04:56:17;;;;;;;3.53;2.00;;;18.10;37.60;;;;;;5020146;28;20299;-68
2022/01/29 04:58:43;;;;;;;2.30;2.20;;;18.00;37.50;;;;;;5022062;28;20684;-68
2022/01/29 05:01:09;;;;;;;3.30;2.40;;;18.00;37.50;;;;;;5019743;28;20212;-68
2022/01/29 05:03:34;;;;;;;1.90;1.80;;;18.00;37.50;;;;;;5022431;28;20549;-68
2022/01/29 05:06:00;;;;;;;2.00;1.90;;;18.00;37.60;;;;;;5020348;28;20673;-69
2022/01/29 05:08:26;;;;;;;4.63;2.10;;;18.10;37.60;;;;;;5021985;28;20262;-67
2022/01/29 05:10:54;;;;;;;2.20;2.10;;;18.10;37.60;;;;;;5019600;28;20711;-68
2022/01/29 05:13:23;;;;;;;2.43;2.27;;;18.00;37.50;;;;;;5021551;28;20430;-67
2022/01/29 05:29:17;;;;;;;2.37;2.27;;;18.10;37.60;;;;;;5023443;28;20437;-67
2022/01/29 05:31:44;;;;;;;1.90;1.80;;;18.10;37.60;;;;;;5023207;28;20454;-67
2022/01/29 05:34:09;;;;;;;1.90;1.80;;;18.10;37.60;;;;;;5024903;28;20445;-68
2022/01/29 05:36:35;;;;;;;2.00;1.90;;;18.10;37.60;;;;;;5021621;28;20490;-68
2022/01/29 05:39:02;;;;;;;1.90;1.80;;;18.10;37.60;;;;;;5020530;28;20245;-68
2022/01/29 05:41:30;;;;;;;1.80;1.70;;;18.10;37.60;;;;;;5025738;28;20215;-68
2022/01/29 05:43:56;;;;;;;3.00;1.87;;;18.10;37.60;;;;;;5023258;28;20449;-67
2022/01/29 05:46:22;;;;;;;1.80;1.70;;;18.10;37.60;;;;;;5038435;28;20426;-67
2022/01/29 05:48:47;;;;;;;2.00;1.90;;;18.20;37.60;;;;;;5025804;28;20254;-67
2022/01/29 05:51:13;;;;;;;1.80;1.70;;;18.10;37.60;;;;;;5023536;28;20243;-69
2022/01/29 05:53:39;;;;;;;1.80;1.70;;;18.20;37.60;;;;;;5040263;28;20262;-69
2022/01/29 05:56:06;;;;;;;1.87;1.77;;;18.20;37.60;;;;;;5026064;28;20211;-68
2022/01/29 05:58:32;;;;;;;1.50;1.40;;;18.20;37.60;;;;;;5025225;28;20433;-67
2022/01/29 06:00:57;;;;;;;1.63;1.53;;;18.20;37.60;;;;;;5023332;28;20456;-67
2022/01/29 06:03:23;;;;;;;2.13;1.70;;;18.20;37.60;;;;;;5025923;28;20212;-67
2022/01/29 06:05:49;;;;;;;1.70;1.60;;;18.20;37.60;;;;;;5024323;28;20271;-67
2022/01/29 06:08:14;;;;;;;1.67;1.57;;;18.20;37.60;;;;;;5020564;28;20240;-67
2022/01/29 06:10:40;;;;;;;1.83;1.73;;;18.20;37.60;;;;;;5021664;28;20310;-67
2022/01/29 06:13:10;;;;;;;1.70;1.60;;;18.20;37.60;;;;;;5023594;28;20541;-68
2022/01/29 06:15:40;;;;;;;1.70;1.60;;;18.20;37.60;;;;;;5022504;28;20622;-67
2022/01/29 06:18:06;;;;;;;1.73;1.60;;;18.20;37.60;;;;;;5027049;28;20885;-67
2022/01/29 06:20:33;;;;;;;1.77;1.67;;;18.20;37.60;;;;;;5020871;28;20420;-67
2022/01/29 06:22:58;;;;;;;1.80;1.70;;;18.20;37.60;;;;;;5021786;28;20412;-67
2022/01/29 06:25:24;;;;;;;1.70;1.60;;;18.20;37.60;;;;;;5019740;28;20415;-67
2022/01/29 06:27:50;;;;;;;1.60;1.50;;;18.20;37.60;;;;;;5023778;28;20249;-67
2022/01/29 06:30:16;;;;;;;2.03;1.80;;;18.20;37.60;;;;;;5023044;28;20794;-67
2022/01/29 06:32:42;;;;;;;1.70;1.60;;;18.20;37.60;;;;;;5019550;28;20300;-67
2022/01/29 06:35:08;;;;;;;1.73;1.63;;;18.20;37.60;;;;;;5021111;28;20561;-67
2022/01/29 06:37:34;;;;;;;1.60;1.50;;;18.20;37.60;;;;;;5023834;28;20444;-67
2022/01/29 06:40:00;;;;;;;2.30;1.53;;;18.20;37.60;;;;;;5018354;28;20971;-67
2022/01/29 06:42:25;;;;;;;2.27;1.40;;;18.20;37.60;;;;;;5019030;28;20226;-67
2022/01/29 06:44:51;;;;;;;2.07;1.70;;;18.20;37.60;;;;;;5033685;28;20215;-67
2022/01/29 06:47:17;;;;;;;1.50;1.40;;;18.20;37.60;;;;;;5025449;28;20234;-67
2022/01/29 06:49:42;;;;;;;1.73;1.40;;;18.20;37.60;;;;;;5019430;28;20224;-69
2022/01/29 06:52:08;;;;;;;4.47;1.50;;;18.20;37.60;;;;;;5021912;28;20215;-70
2022/01/29 06:54:34;;;;;;;1.40;1.30;;;18.20;37.60;;;;;;5017189;28;20216;-68
2022/01/29 06:56:59;;;;;;;2.00;1.90;;;18.20;37.60;;;;;;5019966;28;20219;-68
2022/01/29 06:59:25;;;;;;;1.83;1.67;;;18.20;37.60;;;;;;5020768;28;20729;-68
2022/01/29 07:01:50;;;;;;;2.10;2.00;;;18.20;37.60;;;;;;5022425;28;20222;-71
2022/01/29 07:04:16;;;;;;;1.63;1.53;;;18.20;37.60;;;;;;5024978;28;20220;-69
2022/01/29 07:06:42;;;;;;;2.90;1.50;;;18.20;37.60;;;;;;5035502;28;20285;-70
2022/01/29 07:09:08;;;;;;;1.50;1.40;;;18.20;37.60;;;;;;5027814;28;20684;-70
2022/01/29 07:11:34;;;;;;;2.00;1.47;;;18.20;37.60;;;;;;5021631;28;20219;-69
2022/01/29 07:14:03;;;;;;;1.57;1.47;;;18.20;37.60;;;;;;5021567;28;20531;-68
2022/01/29 07:16:31;;;;;;;1.80;1.70;;;18.20;37.60;;;;;;5021998;28;20485;-68
2022/01/29 07:18:56;;;;;;;1.70;1.60;;;18.20;37.60;;;;;;5029093;28;20545;-68
2022/01/29 07:21:22;;;;;;;1.57;1.47;;;18.20;37.60;;;;;;5022031;28;20958;-68
2022/01/29 07:23:48;;;;;;;1.67;1.57;;;18.20;37.60;;;;;;5023403;28;20227;-69
2022/01/29 07:26:14;;;;;;;1.40;1.30;;;18.20;37.60;;;;;;5034358;28;20342;-69
2022/01/29 07:28:39;;;;;;;2.60;1.60;;;18.30;37.70;;;;;;5024209;28;20273;-69
2022/01/29 07:31:06;;;;;;;2.33;1.60;;;18.30;37.70;;;;;;5027924;28;20273;-73
2022/01/29 07:33:31;;;;;;;1.50;1.40;;;18.30;37.70;;;;;;5021469;28;20218;-73
2022/01/29 07:35:57;;;;;;;1.63;1.40;;;18.30;37.70;;;;;;5019309;28;20824;-72
2022/01/29 07:38:23;;;;;;;1.70;1.60;;;18.30;37.70;;;;;;5019423;28;20564;-72
2022/01/29 07:40:49;;;;;;;1.83;1.73;;;18.30;37.70;;;;;;5019179;28;20238;-73
2022/01/29 07:43:14;;;;;;;1.40;1.30;;;18.30;37.70;;;;;;5021268;28;20228;-75
2022/01/29 07:45:40;;;;;;;1.40;1.30;;;18.20;37.60;;;;;;5017703;28;21385;-72
2022/01/29 07:48:06;;;;;;;2.30;1.50;;;18.30;37.70;;;;;;5020031;28;20235;-72
2022/01/29 07:50:31;;;;;;;1.50;1.40;;;18.30;37.70;;;;;;5020228;28;20567;-70
2022/01/29 07:52:59;;;;;;;1.90;1.80;;;18.30;37.70;;;;;;5023314;28;20215;-69
2022/01/29 07:55:25;;;;;;;2.13;1.47;;;18.30;37.70;;;;;;5024039;28;20219;-69
2022/01/29 07:57:51;;;;;;;2.00;1.77;;;18.30;37.70;;;;;;5025245;28;20458;-69
2022/01/29 08:00:17;;;;;;;1.53;1.43;;;18.30;37.70;;;;;;5016462;28;20458;-69
2022/01/29 08:02:43;;;;;;;1.33;1.23;;;18.30;37.70;;;;;;5025527;28;20228;-69
2022/01/29 08:05:10;;;;;;;1.40;1.30;;;18.30;37.70;;;;;;5025760;28;20298;-69
2022/01/29 08:07:35;;;;;;;1.67;1.57;;;18.30;37.70;;;;;;5025503;28;20739;-69
2022/01/29 08:10:01;;;;;;;1.50;1.40;;;18.30;37.70;;;;;;5024589;28;20535;-68
2022/01/29 08:12:27;;;;;;;1.60;1.50;;;18.30;37.70;;;;;;5021557;28;20640;-68
2022/01/29 08:14:53;;;;;;;4.07;1.40;;;18.30;37.70;;;;;;5019766;28;20218;-68
2022/01/29 08:17:18;;;;;;;1.57;1.47;;;18.30;37.70;;;;;;5017837;28;20767;-69
2022/01/29 08:19:44;;;;;;;1.37;1.20;;;18.30;37.70;;;;;;5026091;28;20738;-68
2022/01/29 08:22:09;;;;;;;1.40;1.30;;;18.30;37.70;;;;;;5018885;28;20212;-69
2022/01/29 08:24:35;;;;;;;2.93;1.40;;;18.30;37.70;;;;;;5023377;28;20211;-68
2022/01/29 08:27:01;;;;;;;1.40;1.30;;;18.30;37.70;;;;;;5020402;28;20238;-68
2022/01/29 08:29:26;;;;;;;1.40;1.30;;;18.30;37.70;;;;;;5020646;28;20222;-69
2022/01/29 08:31:52;;;;;;;1.73;1.57;;;18.30;37.70;;;;;;5018290;28;20242;-69
2022/01/29 08:34:18;;;;;;;1.30;1.20;;;18.30;37.70;;;;;;5019867;28;20241;-68
2022/01/29 08:36:44;;;;;;;1.53;1.23;;;18.30;37.70;;;;;;5024636;28;20223;-68
2022/01/29 08:39:09;;;;;;;2.20;1.47;;;18.20;37.60;;;;;;5025178;28;20211;-69
2022/01/29 08:41:35;;;;;;;1.50;1.40;;;18.30;37.80;;;;;;5025137;28;20218;-68
2022/01/29 08:44:01;;;;;;;1.40;1.30;;;18.30;37.80;;;;;;5018841;28;20223;-68
2022/01/29 08:46:26;;;;;;;1.63;1.17;;;18.20;37.70;;;;;;5019188;28;20453;-68
2022/01/29 08:48:52;;;;;;;1.50;1.40;;;18.30;37.70;;;;;;5031988;28;20227;-69
2022/01/29 08:51:17;;;;;;;3.00;1.33;;;18.30;37.90;;;;;;5019002;28;20208;-66
2022/01/29 08:53:43;;;;;;;2.03;1.30;;;18.30;37.80;;;;;;5020857;28;20226;-71
2022/01/29 08:56:09;;;;;;;1.50;1.40;;;18.30;37.90;;;;;;5019165;28;20303;-72
2022/01/29 08:58:35;;;;;;;1.40;1.30;;;18.30;37.90;;;;;;5027175;28;20607;-71
2022/01/29 09:01:02;;;;;;;1.93;1.83;;;18.30;37.90;;;;;;5014747;28;20435;-70
2022/01/29 09:03:28;;;;;;;1.27;1.17;;;18.20;37.70;;;;;;5019746;28;20238;-69
2022/01/29 09:05:53;;;;;;;1.50;1.40;;;18.30;37.90;;;;;;5023178;28;20449;-69
2022/01/29 09:08:20;;;;;;;1.47;1.37;;;18.30;38.00;;;;;;5024700;28;20301;-69
2022/01/29 09:10:46;;;;;;;2.07;1.77;;;18.30;37.80;;;;;;5023983;28;20219;-69
2022/01/29 09:13:14;;;;;;;1.87;1.47;;;18.30;37.90;;;;;;5020526;28;20419;-70
2022/01/29 09:15:39;;;;;;;1.30;1.20;;;18.30;37.90;;;;;;5002261;28;20273;-69
2022/01/29 09:18:05;;;;;;;1.60;1.50;;;18.30;38.10;;;;;;5010202;28;20460;-70
2022/01/29 09:20:31;;;;;;;1.30;1.20;;;18.30;38.10;;;;;;5021298;28;20281;-68
2022/01/29 09:22:57;;;;;;;2.80;1.60;;;18.30;38.70;;;;;;5019997;28;20684;-68
2022/01/29 09:25:25;;;;;;;6.00;1.60;;;18.30;38.00;;;;;;5022681;28;20219;-69
2022/01/29 09:27:50;;;;;;;2.70;1.27;;;18.30;38.00;;;;;;5024332;28;20506;-69
2022/01/29 09:30:16;;;;;;;3.87;2.03;;;18.30;38.00;;;;;;5015915;28;20536;-69
2022/01/29 09:32:42;;;;;;;2.00;1.60;;;18.30;38.10;;;;;;5017559;28;20657;-66
2022/01/29 09:35:07;;;;;;;3.83;1.40;;;18.20;38.00;;;;;;5017414;28;20206;-71
2022/01/29 09:37:33;;;;;;;3.67;1.80;;;18.20;38.00;;;;;;5024760;28;20272;-70
2022/01/29 09:39:59;;;;;;;1.90;1.20;;;18.20;38.10;;;;;;5035446;28;20260;-70
2022/01/29 09:42:25;;;;;;;3.17;1.40;;;18.20;38.10;;;;;;5018076;28;20315;-70
2022/01/29 09:44:52;;;;;;;2.20;1.50;;;18.20;38.10;;;;;;5024349;28;20692;-70
2022/01/29 09:47:21;;;;;;;2.90;1.43;;;18.30;38.20;;;;;;5024559;28;20435;-70
2022/01/29 09:49:47;;;;;;;1.43;1.33;;;18.30;38.20;;;;;;5022573;28;20452;-70
2022/01/29 09:52:12;;;;;;;1.67;1.40;;;18.20;38.20;;;;;;5019354;28;20460;-69
2022/01/29 09:54:39;;;;;;;1.63;1.53;;;18.20;38.20;;;;;;5024368;28;20736;-69
2022/01/29 09:57:05;;;;;;;1.30;1.20;;;18.20;38.20;;;;;;5021986;28;20226;-70
2022/01/29 09:59:30;;;;;;;1.50;1.40;;;18.20;38.20;;;;;;5016704;28;20506;-72
2022/01/29 10:01:56;;;;;;;10.83;2.10;;;18.20;38.20;;;;;;5022304;28;20675;-70
2022/01/29 10:04:24;;;;;;;19.17;2.90;;;18.20;38.20;;;;;;5018086;28;20227;-69
2022/01/29 10:07:14;;;;;;;22.57;3.90;;;18.30;38.20;;;;;;5017081;28;20726;-70
2022/01/29 10:09:39;;;;;;;10.30;2.33;;;18.30;38.10;;;;;;5021570;28;20429;-67
2022/01/29 10:12:19;;;;;;;23.20;2.70;;;18.30;38.20;;;;;;5025471;28;20445;-76
2022/01/29 10:15:02;;;;;;;7.00;1.70;;;18.30;38.20;;;;;;5011374;28;20219;-74
2022/01/29 10:17:44;;;;;;;10.73;2.37;;;18.30;38.20;;;;;;5021032;28;20958;-72
2022/01/29 10:20:10;;;;;;;23.97;3.80;;;18.30;38.10;;;;;;5028848;28;20427;-70
2022/01/29 10:22:37;;;;;;;4.47;1.90;;;18.30;38.10;;;;;;5035661;28;20467;-70
2022/01/29 10:25:19;;;;;;;7.00;3.00;;;18.30;38.10;;;;;;5019541;28;20433;-70
2022/01/29 10:28:12;;;;;;;3.03;1.40;;;18.30;38.00;;;;;;5022199;28;20475;-70
2022/01/29 10:30:50;;;;;;;9.87;2.10;;;18.30;37.90;;;;;;5037438;28;20427;-70
2022/01/29 10:33:28;;;;;;;6.30;1.73;;;18.30;38.00;;;;;;5040480;28;20512;-69
2022/01/29 10:35:56;;;;;;;3.93;2.00;;;18.40;38.10;;;;;;5027137;28;20512;-70
2022/01/29 10:38:44;;;;;;;3.30;1.83;;;18.30;38.10;;;;;;5025912;28;20435;-69
2022/01/29 10:41:22;;;;;;;3.80;1.80;;;18.40;38.00;;;;;;5020409;28;20455;-69
2022/01/29 10:44:10;;;;;;;4.53;1.70;;;18.40;37.90;;;;;;5023947;28;20445;-70
2022/01/29 10:46:55;;;;;;;5.00;1.57;;;18.40;38.10;;;;;;5030479;28;20464;-69
2022/01/29 10:49:27;;;;;;;2.67;1.70;;;18.40;38.20;;;;;;5036879;28;20466;-69
2022/01/29 10:52:02;;;;;;;4.33;1.70;;;18.30;38.10;;;;;;5021693;28;20784;-69
2022/01/29 10:54:29;;;;;;;3.87;1.57;;;18.30;38.20;;;;;;5024899;28;20453;-73
2022/01/29 10:57:04;;;;;;;6.33;1.50;;;18.30;38.20;;;;;;5021094;28;20449;-72
2022/01/29 10:59:33;;;;;;;1.40;1.30;;;18.30;38.30;;;;;;5017512;28;20440;-71
2022/01/29 11:02:01;;;;;;;2.90;1.67;;;18.30;38.30;;;;;;5021454;28;20523;-69
2022/01/29 11:04:29;;;;;;;2.10;1.60;;;18.30;38.30;;;;;;5035427;28;20977;-67
2022/01/29 11:06:58;;;;;;;2.50;1.63;;;18.30;38.30;;;;;;5021333;28;20449;-64
2022/01/29 11:09:26;;;;;;;4.03;1.50;;;18.30;38.20;;;;;;5023999;28;20449;-64
2022/01/29 11:11:54;;;;;;;1.40;1.30;;;18.30;38.20;;;;;;5020386;28;20419;-64
2022/01/29 11:14:20;;;;;;;1.70;1.50;;;18.40;38.30;;;;;;5023434;28;20451;-64
2022/01/29 11:16:47;;;;;;;3.03;1.50;;;18.30;38.20;;;;;;5023840;28;20495;-64
2022/01/29 11:19:16;;;;;;;3.47;1.37;;;18.40;38.30;;;;;;5023047;28;20484;-64
2022/01/29 11:21:43;;;;;;;5.00;1.50;;;18.30;38.30;;;;;;5024753;28;20442;-64
2022/01/29 11:24:10;;;;;;;2.00;1.37;;;18.30;38.20;;;;;;5023626;28;20451;-64
2022/01/29 11:26:37;;;;;;;2.13;1.43;;;18.30;38.40;;;;;;5023352;28;20470;-64
2022/01/29 11:29:32;;;;;;;4.07;1.40;;;18.30;38.40;;;;;;5019299;28;20428;-64
2022/01/29 11:32:22;;;;;;;3.70;1.30;;;18.30;38.50;;;;;;5020710;28;20813;-64
2022/01/29 11:35:11;;;;;;;3.70;1.27;;;18.30;38.50;;;;;;5025175;28;20529;-63
2022/01/29 11:37:51;;;;;;;9.63;2.30;;;18.30;38.50;;;;;;5016406;28;20541;-63
2022/01/29 11:40:20;;;;;;;2.20;1.23;;;18.30;38.60;;;;;;5024304;28;20853;-64
2022/01/29 11:43:01;;;;;;;1.27;1.17;;;18.30;38.40;;;;;;5019465;28;20428;-64
2022/01/29 11:45:30;;;;;;;2.50;1.40;;;18.30;38.50;;;;;;5015895;28;20719;-64
2022/01/29 11:47:56;;;;;;;5.50;1.70;;;18.30;38.50;;;;;;5025649;28;20452;-64
2022/01/29 11:50:27;;;;;;;1.63;1.20;;;18.30;38.60;;;;;;5019577;28;20441;-63
2022/01/29 11:53:03;;;;;;;1.13;1.03;;;18.30;38.50;;;;;;5023808;28;20223;-64
2022/01/29 11:55:34;;;;;;;2.03;1.10;;;18.30;38.50;;;;;;5022413;28;20510;-64
2022/01/29 11:58:22;;;;;;;1.30;1.20;;;18.30;38.60;;;;;;5022103;28;20944;-63
2022/01/29 12:00:55;;;;;;;1.20;1.03;;;18.30;38.60;;;;;;5014933;28;20488;-63
2022/01/29 12:03:33;;;;;;;3.17;1.20;;;18.20;38.60;;;;;;5016398;28;20463;-65
2022/01/29 12:06:09;;;;;;;4.00;1.20;;;18.30;38.60;;;;;;5020900;28;20920;-64
2022/01/29 12:08:41;;;;;;;2.03;1.13;;;18.30;38.60;;;;;;5018475;28;20470;-64
2022/01/29 12:11:13;;;;;;;1.27;1.00;;;18.20;38.60;;;;;;5022091;28;20412;-64
2022/01/29 12:13:40;;;;;;;2.13;1.30;;;18.30;38.60;;;;;;5023986;28;20443;-63
2022/01/29 12:16:08;;;;;;;1.63;1.53;;;18.20;38.60;;;;;;5021055;28;20956;-65
2022/01/29 12:18:36;;;;;;;0.87;0.87;;;18.30;38.70;;;;;;5019188;28;20469;-65
2022/01/29 12:21:04;;;;;;;1.00;0.90;;;18.20;38.60;;;;;;5018439;28;20460;-65
2022/01/29 12:23:45;;;;;;;1.63;1.00;;;18.20;38.60;;;;;;5018368;28;20991;-64
2022/01/29 12:26:11;;;;;;;1.13;1.03;;;18.20;38.70;;;;;;5019200;28;20491;-64
2022/01/29 12:28:49;;;;;;;1.20;1.10;;;18.20;38.70;;;;;;5020411;28;20435;-64
2022/01/29 12:31:18;;;;;;;1.43;0.90;;;18.20;38.70;;;;;;5018841;28;20329;-65
2022/01/29 12:33:44;;;;;;;1.10;1.00;;;18.20;38.70;;;;;;5022818;28;20460;-64
2022/01/29 12:36:10;;;;;;;3.60;1.00;;;18.20;38.70;;;;;;5020379;28;20411;-63
2022/01/29 12:38:41;;;;;;;1.33;1.00;;;18.20;38.70;;;;;;5017316;28;20306;-63
2022/01/29 12:41:11;;;;;;;1.10;1.00;;;18.20;38.70;;;;;;5025325;28;20306;-63
2022/01/29 12:43:52;;;;;;;2.83;1.00;;;18.20;38.70;;;;;;5019747;28;20470;-62
2022/01/29 12:46:23;;;;;;;1.97;1.00;;;18.20;38.80;;;;;;5016655;28;20945;-64
2022/01/29 12:49:07;;;;;;;1.63;0.90;;;18.20;38.80;;;;;;5019745;28;20433;-61
2022/01/29 12:51:34;;;;;;;1.50;1.10;;;18.20;38.80;;;;;;5033397;28;20426;-62
2022/01/29 12:54:04;;;;;;;1.73;1.10;;;18.20;38.80;;;;;;5019665;28;20473;-61
2022/01/29 12:56:34;;;;;;;1.23;1.00;;;18.20;38.80;;;;;;5020593;28;20427;-61
2022/01/29 12:59:05;;;;;;;1.40;1.30;;;18.20;38.80;;;;;;5020667;28;20437;-61
2022/01/29 13:01:31;;;;;;;0.97;0.90;;;18.20;38.80;;;;;;5024459;28;20438;-62
2022/01/29 13:04:05;;;;;;;1.20;1.00;;;18.20;39.60;;;;;;5019331;28;20431;-61